Swampers, Louisiana
Current Conditions -  °F | °C
As of 1:53 AM on Sunday 26 Oct 2014 (Local Time) from KMLU Reporting Station
Haze Haze  
Wind Chill: 59°   Ceiling: Unl
Heat Index: 59°   Visibility: 6mi
Dew Point: 57°   Wind: 0mph
Humidity: 93%   Direction: NA
Pressure: 30.06"   Gusts: NA
Location:  32.1434°N, 91.7026°W
Report Text: KMLU 260653Z AUTO 00000KT 6SM BR CLR 15/14 A3006 RMK AO2 SLP177 T01500139
Loading
Personal Weather Stations






























Interactive Weather Map
Tropical Storm Tracking
New forecast layout! Learn more

10-Day Weather Forecast

Advertisements
Track Severe Weather on mobile